Thunder radar more information blitzortung!


Radar de pluja more information rain snow radar


Visita la nostra xarxa de llocs de meteo:

Template documentation
and downloads

And another site



No particular awareness of the weather is required.    There are no Weather-warnings

Pagina Historial Weather Underground text

Diari Resum Setembre 10, 2017 Unitats:  Imperial    Mètric   Tant
« Previous Dia
SegĂźent Dia »
Diari Setmana Mensual Anual Personalitzada
  Maxima: Minima: Media:
Temperatura: 81 °F 52.9 °F 69.1 °F
Punt de rosada: 53.2 °F 40.1 °F 46 °F
Humitat: 83 % 27 % 46 %
Wind Speed: 12.7 mph 0 mph 4.6 mph
RĂ fegues de vent: 12.7 mph - -
Vent:- - South
Pression baro: 29.8 in 29.6 in -
Precipitacions: 0 in    
Historical Graphs
 
 
Dades de taula per Setembre 10, 2017
Temps Temperatura Punt de rosada Pression baro Vent Wind Speed RĂ fegues de vent Humitat Rainfall Rate (Hourly)
00:04 58.5 °F 53.2 °F 29.7 in East 2.3 mph 2.3 mph 83 % 0 in
00:05 54.3 °F 46.2 °F 29.7 in Calm   1 mph 74 % 0 in
00:09 58.5 °F 53.1 °F 29.6 in East 1.6 mph 1.6 mph 82 % 0 in
00:14 58.3 °F 52.9 °F 29.6 in Calm     82 % 0 in
00:15 53.8 °F 46 °F 29.6 in SW 2 mph 2 mph 75 % 0 in
00:19 58.3 °F 52.9 °F 29.6 in Calm     82 % 0 in
00:25 53.2 °F 45.5 °F 29.7 in WSW 2 mph 2 mph 75 % 0 in
00:35 53.6 °F 45.9 °F 29.7 in West 1 mph 3 mph 75 % 0 in
00:45 54.1 °F 46 °F 29.7 in NW 1 mph 2 mph 74 % 0 in
00:55 54.3 °F 45.9 °F 29.7 in North 2 mph 3 mph 73 % 0 in
01:05 54.3 °F 45.9 °F 29.7 in NW 1 mph 3 mph 73 % 0 in
01:15 54.1 °F 45.3 °F 29.7 in Calm   2 mph 72 % 0 in
01:25 53.8 °F 45.3 °F 29.7 in Calm   1 mph 73 % 0 in
01:35 53.4 °F 45 °F 29.7 in Calm   2 mph 73 % 0 in
01:45 53.2 °F 44.8 °F 29.7 in Calm     73 % 0 in
01:55 53.2 °F 45.1 °F 29.7 in NNW 1 mph 3 mph 74 % 0 in
02:05 53.1 °F 45 °F 29.7 in NNW 1 mph 3 mph 74 % 0 in
02:15 52.9 °F 44.8 °F 29.7 in NW 1 mph 2 mph 74 % 0 in
02:25 53.1 °F 45 °F 29.7 in NE 1 mph 3 mph 74 % 0 in
02:35 52.9 °F 44.8 °F 29.7 in NE 1 mph 2 mph 74 % 0 in
02:45 52.9 °F 44.4 °F 29.7 in NW 1 mph 2 mph 73 % 0 in
02:55 53.2 °F 44.8 °F 29.7 in WSW 3 mph 4 mph 73 % 0 in
03:05 53.4 °F 45 °F 29.7 in WSW 1 mph 2 mph 73 % 0 in
03:15 54.1 °F 45.7 °F 29.7 in WSW 1 mph 2 mph 73 % 0 in
03:25 55 °F 46.2 °F 29.7 in WSW 2 mph 4 mph 72 % 0 in
03:35 55.2 °F 46 °F 29.7 in WSW 1 mph 2 mph 71 % 0 in
03:45 57.2 °F 47.5 °F 29.7 in SSW 1 mph 2 mph 70 % 0 in
03:55 58.1 °F 47.7 °F 29.7 in ENE 2 mph 2 mph 68 % 0 in
04:05 58.8 °F 48.4 °F 29.7 in Calm   3 mph 68 % 0 in
04:15 59 °F 47.7 °F 29.7 in NNE 1 mph 3 mph 66 % 0 in
04:25 60.8 °F 49.5 °F 29.7 in NE 1 mph 2 mph 66 % 0 in
04:35 59.7 °F 47.8 °F 29.7 in NE 3 mph 3 mph 65 % 0 in
04:45 60.6 °F 48.7 °F 29.7 in NE 1 mph 3 mph 65 % 0 in
04:55 61.2 °F 49.3 °F 29.7 in NE 3 mph 4 mph 65 % 0 in
09:54 61.2 °F 49.3 °F 29.7 in ENE 2.3 mph 2.6 mph 65 % 0 in
09:59 60.3 °F 48 °F 29.7 in NNE 4.6 mph 4.6 mph 64 % 0 in
10:04 61 °F 48.4 °F 29.7 in NNE 4.6 mph 4.6 mph 63 % 0 in
10:09 61.2 °F 48.6 °F 29.7 in NNW 4.6 mph 4.6 mph 63 % 0 in
10:14 62.1 °F 49.6 °F 29.7 in NE 3.1 mph 3.1 mph 64 % 0 in
10:19 62.8 °F 50 °F 29.7 in NE 3.5 mph 3.5 mph 63 % 0 in
10:24 62.8 °F 49.6 °F 29.7 in North 2.3 mph 2.3 mph 62 % 0 in
10:29 62.6 °F 48.9 °F 29.7 in ENE 4.6 mph 4.6 mph 61 % 0 in
10:34 63.9 °F 50.5 °F 29.7 in SW 2.4 mph 2.4 mph 62 % 0 in
10:39 64.6 °F 50.7 °F 29.7 in NE 2.6 mph 2.6 mph 61 % 0 in
10:44 64.8 °F 50.5 °F 29.7 in ENE 3.5 mph 3.5 mph 60 % 0 in
10:49 64.4 °F 50.2 °F 29.7 in East 4.6 mph 4.6 mph 60 % 0 in
10:54 64 °F 49.5 °F 29.7 in East 5.8 mph 5.8 mph 59 % 0 in
10:59 64.8 °F 49.6 °F 29.7 in ESE 4.6 mph 4.6 mph 58 % 0 in
11:04 64.9 °F 50.7 °F 29.7 in NNE 3.5 mph 3.5 mph 60 % 0 in
11:09 65.7 °F 50.9 °F 29.7 in ENE 3.5 mph 3.5 mph 59 % 0 in
11:14 66.6 °F 50.7 °F 29.7 in East 3.5 mph 3.5 mph 57 % 0 in
11:19 66.9 °F 51.3 °F 29.7 in NE 3.5 mph 3.5 mph 57 % 0 in
11:24 66.9 °F 51.3 °F 29.7 in East 4.6 mph 4.6 mph 57 % 0 in
11:29 67.5 °F 51.3 °F 29.7 in North 3.5 mph 3.5 mph 56 % 0 in
11:34 68.2 °F 50.4 °F 29.7 in ESE 3.5 mph 3.5 mph 53 % 0 in
11:39 68.2 °F 50.4 °F 29.7 in East 5.6 mph 5.6 mph 53 % 0 in
11:44 68.2 °F 50.4 °F 29.7 in ESE 5.8 mph 5.8 mph 53 % 0 in
11:49 68.4 °F 50 °F 29.7 in ESE 4.6 mph 4.7 mph 52 % 0 in
11:54 68.9 °F 51.6 °F 29.7 in NNE 3.5 mph 3.5 mph 54 % 0 in
11:59 69.6 °F 51.6 °F 29.7 in ESE 3.5 mph 3.5 mph 53 % 0 in
12:04 70.3 °F 52 °F 29.7 in ESE 4.6 mph 4.6 mph 52 % 0 in
12:09 70.5 °F 51.4 °F 29.7 in ESE 4 mph 4 mph 51 % 0 in
12:14 70 °F 51.4 °F 29.7 in ENE 4 mph 4 mph 52 % 0 in
12:19 71.4 °F 52.3 °F 29.7 in WSW 3.5 mph 3.5 mph 51 % 0 in
12:24 72.1 °F 52.5 °F 29.7 in NW 5.8 mph 5.8 mph 50 % 0 in
12:29 72.5 °F 51.6 °F 29.7 in SW 11.5 mph 11.5 mph 48 % 0 in
12:34 73 °F 51.6 °F 29.7 in WSW 6.7 mph 6.7 mph 47 % 0 in
12:39 72.5 °F 49.8 °F 29.7 in WNW 8.1 mph 8.1 mph 45 % 0 in
12:44 73.2 °F 50.5 °F 29.7 in WSW 8.1 mph 8.1 mph 45 % 0 in
12:49 73.4 °F 50.2 °F 29.7 in SSW 5.8 mph 5.8 mph 44 % 0 in
12:54 73.8 °F 49.8 °F 29.7 in WNW 6.4 mph 6.4 mph 43 % 0 in
12:59 73.9 °F 50 °F 29.7 in WSW 6.4 mph 6.4 mph 43 % 0 in
13:04 73.9 °F 48 °F 29.7 in West 8.1 mph 8.1 mph 40 % 0 in
13:09 74.3 °F 48.4 °F 29.7 in West 8.1 mph 8.1 mph 40 % 0 in
13:14 75 °F 49.6 °F 29.7 in WSW 4.3 mph 4.3 mph 41 % 0 in
13:19 75.4 °F 50 °F 29.7 in West 5.8 mph 6.9 mph 41 % 0 in
13:24 75 °F 49.1 °F 29.7 in West 5.9 mph 5.9 mph 40 % 0 in
13:29 75.6 °F 48.9 °F 29.7 in SSW 10.4 mph 10.4 mph 39 % 0 in
13:34 75.4 °F 48 °F 29.7 in WNW 5.8 mph 5.8 mph 38 % 0 in
13:39 75.6 °F 47.5 °F 29.7 in SSW 10.4 mph 10.4 mph 37 % 0 in
13:44 75.9 °F 48.6 °F 29.7 in North 4 mph 4 mph 38 % 0 in
13:49 76.3 °F 48 °F 29.7 in WNW 6.9 mph 6.9 mph 37 % 0 in
13:54 76.3 °F 48 °F 29.7 in WNW 4.9 mph 5.4 mph 37 % 0 in
13:59 76.6 °F 48.4 °F 29.7 in NNE 5.8 mph 5.8 mph 37 % 0 in
14:04 77 °F 46.6 °F 29.7 in WSW 6.9 mph 6.9 mph 34 % 0 in
14:09 76.5 °F 45.1 °F 29.7 in SSW 8.1 mph 8.1 mph 33 % 0 in
14:14 77 °F 45.7 °F 29.7 in WNW 4.6 mph 4.6 mph 33 % 0 in
14:19 76.6 °F 44.6 °F 29.7 in SSW 9.2 mph 9.2 mph 32 % 0 in
14:24 77.2 °F 45 °F 29.7 in West 9.2 mph 9.2 mph 32 % 0 in
14:25 77.2 °F 45 °F 29.7 in West 9.2 mph 9.2 mph 32 % 0 in
14:30 76.8 °F 44.8 °F 29.7 in NW 8.1 mph 8.1 mph 32 % 0 in
14:35 77.4 °F 44.4 °F 29.7 in SSW 5.9 mph 5.9 mph 31 % 0 in
14:40 77.7 °F 43.9 °F 29.7 in West 5.8 mph 5.8 mph 30 % 0 in
14:45 77.9 °F 44.1 °F 29.7 in WNW 8.5 mph 8.5 mph 30 % 0 in
14:50 77.7 °F 43.9 °F 29.7 in WSW 7.6 mph 7.6 mph 30 % 0 in
14:55 78.3 °F 44.2 °F 29.7 in NW 5.8 mph 5.8 mph 30 % 0 in
15:00 78.1 °F 43.2 °F 29.7 in South 2.3 mph 2.6 mph 29 % 0 in
15:05 78.4 °F 44.4 °F 29.7 in West 3.5 mph 3.5 mph 30 % 0 in
15:10 79.2 °F 45 °F 29.7 in WNW 7.1 mph 7.1 mph 30 % 0 in
15:15 78.6 °F 44.6 °F 29.7 in WSW 9.2 mph 9.2 mph 30 % 0 in
15:20 77.9 °F 43.2 °F 29.7 in WSW 10.4 mph 10.4 mph 29 % 0 in
15:22 77.7 °F 43 °F 29.7 in WSW 5.8 mph 5.9 mph 29 % 0 in
15:27 78.4 °F 43.5 °F 29.7 in WSW 8.1 mph 8.1 mph 29 % 0 in
15:32 79 °F 44.1 °F 29.7 in WSW 6.9 mph 6.9 mph 29 % 0 in
15:37 79.3 °F 44.2 °F 29.7 in WNW 10.4 mph 10.4 mph 29 % 0 in
15:42 79.3 °F 44.2 °F 29.7 in WNW 8.1 mph 8.1 mph 29 % 0 in
15:47 79.7 °F 44.6 °F 29.7 in WSW 10.4 mph 10.4 mph 29 % 0 in
15:52 79.9 °F 44.8 °F 29.7 in West 8.1 mph 8.1 mph 29 % 0 in
15:57 80.4 °F 45.1 °F 29.7 in WNW 4.6 mph 4.6 mph 29 % 0 in
16:02 80.1 °F 44.1 °F 29.7 in SW 9.2 mph 9.2 mph 28 % 0 in
16:07 79.7 °F 43.7 °F 29.7 in NNW 10.4 mph 10.4 mph 28 % 0 in
16:12 79.5 °F 43.5 °F 29.7 in NNW 4.6 mph 4.6 mph 28 % 0 in
16:17 80.4 °F 44.2 °F 29.7 in West 4.6 mph 4.6 mph 28 % 0 in
16:22 80.8 °F 44.6 °F 29.7 in SW 6.9 mph 6.9 mph 28 % 0 in
16:27 81 °F 44.8 °F 29.7 in WSW 9.2 mph 9.2 mph 28 % 0 in
16:32 80.8 °F 44.6 °F 29.7 in WNW 7.8 mph 7.8 mph 28 % 0 in
16:37 80.8 °F 44.6 °F 29.7 in WSW 9.2 mph 9.2 mph 28 % 0 in
16:42 80.6 °F 44.4 °F 29.7 in SW 8.1 mph 8.1 mph 28 % 0 in
16:47 80.6 °F 44.4 °F 29.7 in West 5.8 mph 6.7 mph 28 % 0 in
16:52 80.4 °F 44.2 °F 29.7 in NW 10.4 mph 10.4 mph 28 % 0 in
16:57 80.4 °F 44.2 °F 29.7 in WSW 8.1 mph 8.1 mph 28 % 0 in
17:02 80.8 °F 44.6 °F 29.7 in WSW 5.8 mph 5.8 mph 28 % 0 in
17:07 80.6 °F 44.4 °F 29.7 in SSW 9.2 mph 9.2 mph 28 % 0 in
17:12 81 °F 44.8 °F 29.7 in West 5.8 mph 5.8 mph 28 % 0 in
17:17 79.9 °F 43.9 °F 29.7 in West 4.3 mph 4.3 mph 28 % 0 in
17:22 80.6 °F 44.4 °F 29.7 in NNW 7.4 mph 7.4 mph 28 % 0 in
17:27 80.4 °F 44.2 °F 29.7 in SSW 8.1 mph 8.1 mph 28 % 0 in
17:32 80.2 °F 44.2 °F 29.7 in WSW 6.9 mph 6.9 mph 28 % 0 in
17:37 79.9 °F 43.9 °F 29.7 in SW 8.1 mph 8.1 mph 28 % 0 in
17:42 79.9 °F 43.9 °F 29.7 in SW 9.7 mph 9.7 mph 28 % 0 in
17:47 79.9 °F 43.9 °F 29.7 in SW 9.2 mph 9.2 mph 28 % 0 in
17:52 79.7 °F 43.7 °F 29.7 in SW 8.1 mph 8.1 mph 28 % 0 in
17:57 79.3 °F 43.3 °F 29.7 in West 5.8 mph 5.8 mph 28 % 0 in
18:02 79.7 °F 43.7 °F 29.7 in SW 9.2 mph 9.2 mph 28 % 0 in
18:07 79.3 °F 43.3 °F 29.7 in West 9.2 mph 9.2 mph 28 % 0 in
18:12 79.2 °F 43.2 °F 29.7 in WSW 8.1 mph 8.1 mph 28 % 0 in
18:17 79 °F 42.1 °F 29.7 in SSW 12.7 mph 12.7 mph 27 % 0 in
18:22 78.8 °F 42.1 °F 29.7 in WSW 9.2 mph 9.2 mph 27 % 0 in
18:27 78.8 °F 42.1 °F 29.7 in West 5.8 mph 5.8 mph 27 % 0 in
18:32 79 °F 42.1 °F 29.7 in WSW 10.4 mph 10.4 mph 27 % 0 in
18:37 78.4 °F 41.7 °F 29.7 in South 10.7 mph 10.7 mph 27 % 0 in
18:42 78.3 °F 42.4 °F 29.7 in West 8.1 mph 8.1 mph 28 % 0 in
18:47 78.6 °F 42.8 °F 29.7 in WSW 8.1 mph 8.1 mph 28 % 0 in
18:52 78.4 °F 42.6 °F 29.7 in WSW 10.4 mph 10.4 mph 28 % 0 in
18:57 77.9 °F 42.3 °F 29.7 in SW 8.1 mph 8.1 mph 28 % 0 in
19:02 77.5 °F 41.7 °F 29.7 in WSW 11.5 mph 11.5 mph 28 % 0 in
19:07 76.8 °F 42.1 °F 29.7 in WNW 5.8 mph 5.8 mph 29 % 0 in
19:10 65.1 °F 46.6 °F 29.8 in Calm     51 % 0 in
19:12 76.6 °F 42.1 °F 29.7 in West 6.9 mph 6.9 mph 29 % 0 in
19:17 76.3 °F 41.7 °F 29.7 in West 5.8 mph 5.8 mph 29 % 0 in
19:20 64.9 °F 46.4 °F 29.8 in NNE 1 mph 1 mph 51 % 0 in
19:22 76.1 °F 41.5 °F 29.7 in WSW 7.6 mph 7.6 mph 29 % 0 in
19:27 75.6 °F 41.2 °F 29.7 in West 8.1 mph 8.1 mph 29 % 0 in
19:30 64.8 °F 46.2 °F 29.8 in West 1 mph 2 mph 51 % 0 in
19:32 75.2 °F 40.6 °F 29.7 in West 5.8 mph 5.8 mph 29 % 0 in
19:37 74.8 °F 40.5 °F 29.7 in WSW 4.6 mph 4.6 mph 29 % 0 in
19:40 64.6 °F 46 °F 29.8 in West 2 mph 2 mph 51 % 0 in
19:42 74.5 °F 41 °F 29.7 in SW 5.8 mph 5.8 mph 30 % 0 in
19:47 74.3 °F 40.8 °F 29.7 in WSW 5.6 mph 5.6 mph 30 % 0 in
19:49 74.1 °F 40.6 °F 29.7 in WSW 4.6 mph 4.6 mph 30 % 0 in
19:50 64 °F 45 °F 29.8 in WSW 1 mph 2 mph 50 % 0 in
19:54 73.8 °F 40.5 °F 29.7 in WSW 4.6 mph 4.6 mph 30 % 0 in
19:59 73.4 °F 40.1 °F 29.7 in WNW 10.4 mph 10.4 mph 30 % 0 in
20:00 64 °F 45 °F 29.8 in WSW 1 mph 2 mph 50 % 0 in
20:04 73.2 °F 40.8 °F 29.7 in WSW 3.5 mph 3.5 mph 31 % 0 in
20:09 72.9 °F 40.5 °F 29.8 in West 5.8 mph 5.8 mph 31 % 0 in
20:10 63.7 °F 44.8 °F 29.8 in WSW 1 mph 2 mph 50 % 0 in
20:14 72.7 °F 40.3 °F 29.8 in WSW 3.5 mph 3.5 mph 31 % 0 in
20:19 72.5 °F 41 °F 29.8 in WSW 3.6 mph 3.6 mph 32 % 0 in
20:20 63.1 °F 44.8 °F 29.8 in Calm   2 mph 51 % 0 in
20:24 72.3 °F 40.8 °F 29.8 in SW 1.6 mph   32 % 0 in
20:29 72 °F 40.5 °F 29.8 in WSW 1.2 mph 1.2 mph 32 % 0 in
20:30 63 °F 44.4 °F 29.8 in SW 1 mph 2 mph 51 % 0 in
20:34 71.8 °F 40.3 °F 29.8 in NE 3.5 mph 3.5 mph 32 % 0 in
20:39 70.9 °F 41.9 °F 29.7 in ESE 3.5 mph 3.5 mph 35 % 0 in
20:40 62.6 °F 44.2 °F 29.8 in WSW 1 mph 2 mph 51 % 0 in
20:44 70.2 °F 42.6 °F 29.7 in NE 3.5 mph 3.5 mph 37 % 0 in
20:49 69.6 °F 43.5 °F 29.7 in East 2.4 mph 2.4 mph 39 % 0 in
20:50 62.2 °F 44.4 °F 29.8 in Calm   2 mph 52 % 0 in
20:54 69.4 °F 44.1 °F 29.8 in ESE 3.1 mph 3.1 mph 40 % 0 in
20:59 68.9 °F 45 °F 29.8 in ESE 3.5 mph 3.5 mph 42 % 0 in
21:00 62.4 °F 44.6 °F 29.8 in WSW 1 mph 2 mph 52 % 0 in
21:04 68.7 °F 45.3 °F 29.8 in NE 2.2 mph   43 % 0 in
21:09 68.2 °F 45.3 °F 29.8 in NNE 4.3 mph 4.3 mph 44 % 0 in
21:10 62.8 °F 44.4 °F 29.8 in West 2 mph 4 mph 51 % 0 in
21:14 67.8 °F 45.7 °F 29.8 in ENE 5.8 mph 5.8 mph 45 % 0 in
21:19 67.6 °F 46 °F 29.8 in NNE 3.5 mph 3.5 mph 46 % 0 in
21:20 63.3 °F 45 °F 29.8 in West 3 mph 5 mph 51 % 0 in
21:24 67.3 °F 46.4 °F 29.8 in ENE 2.2 mph 2.2 mph 47 % 0 in
21:29 67.1 °F 46.8 °F 29.8 in NE 3.5 mph 3.5 mph 48 % 0 in
21:30 63.7 °F 44.8 °F 29.8 in West 3 mph 5 mph 50 % 0 in
21:34 66.9 °F 46.6 °F 29.8 in ENE 4.6 mph 4.6 mph 48 % 0 in
21:36 66.9 °F 47.1 °F 29.8 in NE 5.9 mph 5.9 mph 49 % 0 in
21:40 63.7 °F 44.8 °F 29.8 in West 5 mph 5 mph 50 % 0 in
21:41 66.7 °F 46.9 °F 29.8 in NNE 3.5 mph 3.5 mph 49 % 0 in
21:46 66.7 °F 46.9 °F 29.8 in NNW 3.5 mph 3.5 mph 49 % 0 in
21:50 63.7 °F 44.8 °F 29.8 in West 3 mph 5 mph 50 % 0 in
21:51 66.7 °F 47.5 °F 29.8 in East 2.3 mph 2.3 mph 50 % 0 in
21:56 66.6 °F 47.3 °F 29.8 in East 2.3 mph 2.3 mph 50 % 0 in
22:00 63.9 °F 45 °F 29.8 in WSW 3 mph 4 mph 50 % 0 in
22:01 66.6 °F 47.3 °F 29.8 in ENE 3.5 mph 3.5 mph 50 % 0 in
22:06 66.4 °F 47.1 °F 29.8 in ENE 1.6 mph 1.6 mph 50 % 0 in
22:10 64.2 °F 44.6 °F 29.8 in West 6 mph 6 mph 49 % 0 in
22:11 66.2 °F 47.5 °F 29.8 in ESE 4.6 mph 4.6 mph 51 % 0 in
22:16 66.2 °F 47.5 °F 29.8 in ESE 2.3 mph 2.3 mph 51 % 0 in
22:20 64.2 °F 44.6 °F 29.8 in West 3 mph 3 mph 49 % 0 in
22:21 65.8 °F 47.1 °F 29.8 in WSW 1.2 mph 1.2 mph 51 % 0 in
22:26 65.7 °F 47.5 °F 29.8 in NNE 3.6 mph 3.6 mph 52 % 0 in
22:30 64 °F 44.4 °F 29.8 in West 3 mph 6 mph 49 % 0 in
22:31 65.5 °F 47.5 °F 29.8 in NNE 3.5 mph 3.5 mph 52 % 0 in
22:36 65.5 °F 47.5 °F 29.8 in NNE 3.5 mph 3.5 mph 52 % 0 in
22:40 63.9 °F 44.2 °F 29.8 in West 2 mph 4 mph 49 % 0 in
22:41 65.5 °F 47.5 °F 29.8 in NNE 3.5 mph 3.5 mph 52 % 0 in
22:46 65.5 °F 47.5 °F 29.8 in NNE 3.5 mph 3.5 mph 52 % 0 in
22:50 63.7 °F 44.2 °F 29.8 in WSW 5 mph 5 mph 49 % 0 in
22:51 65.5 °F 47.5 °F 29.8 in NNE 3.5 mph 3.5 mph 52 % 0 in
22:56 65.5 °F 47.5 °F 29.8 in NNE 3.5 mph 3.5 mph 52 % 0 in
23:00 63.5 °F 44.1 °F 29.8 in WSW 3 mph 5 mph 49 % 0 in
23:01 65.5 °F 47.5 °F 29.8 in NNE 3.5 mph 3.5 mph 52 % 0 in
23:06 65.5 °F 47.5 °F 29.8 in NNE 3.5 mph 3.5 mph 52 % 0 in
23:10 63.5 °F 44.1 °F 29.8 in WSW 3 mph 3 mph 49 % 0 in
23:11 65.5 °F 47.5 °F 29.8 in NNE 3.5 mph 3.5 mph 52 % 0 in
23:16 65.5 °F 47.5 °F 29.8 in NNE 3.5 mph 3.5 mph 52 % 0 in
23:20 63.3 °F 43.9 °F 29.8 in WSW 3 mph 4 mph 49 % 0 in
23:21 65.5 °F 47.5 °F 29.8 in NNE 3.5 mph 3.5 mph 52 % 0 in
23:26 65.5 °F 47.5 °F 29.8 in NNE 3.5 mph 3.5 mph 52 % 0 in
23:30 63.1 °F 43.7 °F 29.8 in WSW 2 mph 4 mph 49 % 0 in
23:31 65.5 °F 47.5 °F 29.8 in NNE 3.5 mph 3.5 mph 52 % 0 in
23:36 65.5 °F 47.5 °F 29.8 in NNE 3.5 mph 3.5 mph 52 % 0 in
23:40 63 °F 43.5 °F 29.8 in West 1 mph 2 mph 49 % 0 in
23:41 65.5 °F 47.5 °F 29.8 in NNE 3.5 mph 3.5 mph 52 % 0 in
23:46 65.5 °F 47.5 °F 29.8 in NNE 3.5 mph 3.5 mph 52 % 0 in
23:50 62.6 °F 43.7 °F 29.8 in West 1 mph 2 mph 50 % 0 in
23:51 65.5 °F 47.5 °F 29.8 in NNE 3.5 mph 3.5 mph 52 % 0 in
23:56 65.5 °F 47.5 °F 29.8 in NNE 3.5 mph 3.5 mph 52 % 0 in
Meteo Sesrovires
Elogis d' Weather Underground - 3.75 mb

Guio original per  Jim McMurry - jmcmurry@mwt.net Adaptat per a la plantilla per  Wim van der Kuil - Leuven-Template.eu

Trobareu la nostra informacio del temps tambe a:

Weather Underground

AWEKAS